עמוד ראשי
METAR-TAF:

METAR-TAF

שדות תעופה :

Oban, סקוטלנד

קו רוחב: 56-27-49N, קו אורך: 5-24-00W, גובה: 7מטר

תצפית מזג אוויר נוכחית

הדו"ח נערך לפני 9 שעות ו 51דקות, בשעה 15:20 UTC
רוח 6קשר מכיוון מזרח/דרום-מזרח, משתנה בין מזרח ו דרום-מזרח
טמפרטורת 18 צלסיוס
לחות 64%
לחץ 1015 hPa
ראות 10 קילומטר או יותר
עננים בינוניים בגובה 4500רגל

METAR: EGEO 201520Z 11006KT 080V140 9999 BKN045 18/11 Q1015

זמן: 02:11 (01:11 UTC)

תחזית

הדו"ח נערך לפני 11 שעות ו 9דקות, בשעה 14:02 UTC
תחזית בתוקף מ 20 ב 15 UTC עד 20 ב 17 UTC
רוח 6קשר מכיוון מערב
ראות 10 קילומטר או יותר
עננים פזורים בגובה 3000רגל

TAF: EGEO 201402Z 2015/2017 28006KT 9999 SCT030

תצפיות ותחזיות מזג אוויר לגבי יותר מ- 4,000 שדות תעופה ברחבי העולם. דוחות METAR ו- TAF.

התחנות הזמינות מסומנות בנקודות צהובות ואדומות על גבי המפה.

העבר את העכבר לנקודה הצבעונית על מנת לראות את שם התחנה.

לאחר מכן, לחץ כדי לראות את תוכן ואת תחזיות מזג האוויר.

כדי לשנות את המפה: לחץ על הכפתורים הירוקים עם הפלוס השחור כדי להתקרב; על הכפתור הירוק עם המקף כדי להתרחק; או בחיצים הירוקים למפות סמוכות.


METAR-TAF: